Time;durP1;ratioP1;P1;durP2;ratioP2;P2;SDS_P1;SDS_P2;PMS_P1;PMS_P2;Temp;Humidity;BMP_temperature;BMP_pressure;BME280_temperature;BME280_humidity;BME280_pressure;Samples;Min_cycle;Max_cycle;Signal;HPM_P1;HPM_P2
2022/05/08 00:00:05;;;;;;;;;;;;;;;11.16;100.00;102750.09;2610600;31;20030;-55
2022/05/08 00:02:33;;;;;;;;;;;;;;;11.04;100.00;102745.44;2612115;36;20069;-55
2022/05/08 00:05:01;;;;;;;;;;;;;;;11.07;100.00;102761.44;2612301;36;20030;-54
2022/05/08 00:07:31;;;;;;;;;;;;;;;11.03;100.00;102757.19;2610361;36;20045;-55
2022/05/08 00:09:59;;;;;;;;;;;;;;;11.09;100.00;102753.28;2612367;36;20045;-55
2022/05/08 00:12:28;;;;;;;;;;;;;;;10.97;100.00;102753.03;2611578;31;20078;-51
2022/05/08 00:14:56;;;;;;;;;;;;;;;11.05;100.00;102752.56;2612483;36;20324;-52
2022/05/08 00:17:24;;;;;;;;;;;;;;;10.91;100.00;102755.22;2612297;36;20062;-54
2022/05/08 00:19:53;;;;;;;;;;;;;;;10.86;100.00;102750.13;2610295;36;20062;-52
2022/05/08 00:22:21;;;;;;;;;;;;;;;10.82;100.00;102752.13;2606531;36;19951;-55
2022/05/08 00:24:51;;;;;;;;;;;;;;;10.85;100.00;102748.38;2607076;36;20034;-56
2022/05/08 00:27:19;;;;;;;;;;;;;;;10.69;100.00;102757.38;2606525;36;20514;-51
2022/05/08 00:29:48;;;;;;;;;;;;;;;10.70;100.00;102750.16;2610689;36;19977;-55
2022/05/08 00:32:16;;;;;;;;;;;;;;;10.71;100.00;102746.50;2612596;36;19970;-52
2022/05/08 00:34:44;;;;;;;;;;;;;;;10.58;100.00;102753.56;2612853;36;20462;-54
2022/05/08 00:37:12;;;;;;;;;;;;;;;10.62;100.00;102739.84;2612755;36;19946;-56
2022/05/08 00:39:40;;;;;;;;;;;;;;;10.67;100.00;102747.63;2612972;36;19981;-52
2022/05/08 00:42:11;;;;;;;;;;;;;;;10.63;100.00;102746.06;2613158;36;19951;-54
2022/05/08 00:44:39;;;;;;;;;;;;;;;10.74;100.00;102751.72;2613403;31;20006;-53
2022/05/08 00:47:07;;;;;;;;;;;;;;;10.68;100.00;102744.00;2609872;36;19950;-53
2022/05/08 00:49:35;;;;;;;;;;;;;;;10.71;100.00;102748.34;2610301;36;20034;-57
2022/05/08 00:52:04;;;;;;;;;;;;;;;10.72;100.00;102750.94;2610538;36;20053;-57
2022/05/08 00:54:32;;;;;;;;;;;;;;;10.61;100.00;102748.84;2611293;36;20053;-55
2022/05/08 00:57:03;;;;;;;;;;;;;;;10.66;100.00;102745.94;2611418;36;19984;-57
2022/05/08 00:59:33;;;;;;;;;;;;;;;10.42;100.00;102745.50;2611837;36;20425;-54
2022/05/08 01:02:02;;;;;;;;;;;;;;;10.35;100.00;102758.47;2610116;36;20037;-53
2022/05/08 01:04:30;;;;;;;;;;;;;;;10.37;100.00;102756.56;2611601;36;20375;-56
2022/05/08 01:07:00;;;;;;;;;;;;;;;10.26;100.00;102764.31;2611779;36;20065;-53
2022/05/08 01:09:28;;;;;;;;;;;;;;;10.24;100.00;102756.34;2612811;36;19950;-52
2022/05/08 01:11:56;;;;;;;;;;;;;;;10.28;100.00;102752.53;2612750;36;20042;-52
2022/05/08 01:14:25;;;;;;;;;;;;;;;10.12;100.00;102757.91;2611695;36;20066;-56
2022/05/08 01:16:55;;;;;;;;;;;;;;;10.02;100.00;102750.44;2611695;36;19973;-55
2022/05/08 01:19:23;;;;;;;;;;;;;;;9.92;100.00;102752.78;2612688;31;19958;-55
2022/05/08 01:21:54;;;;;;;;;;;;;;;9.96;100.00;102746.28;2613234;36;20084;-56
2022/05/08 01:24:25;;;;;;;;;;;;;;;9.85;100.00;102754.94;2614227;36;20511;-55
2022/05/08 01:26:53;;;;;;;;;;;;;;;9.80;100.00;102751.63;2611451;36;19950;-55
2022/05/08 01:29:21;;;;;;;;;;;;;;;9.77;100.00;102751.81;2610535;36;19951;-56
2022/05/08 01:31:49;;;;;;;;;;;;;;;9.80;100.00;102751.63;2612782;31;19946;-50
2022/05/08 01:34:17;;;;;;;;;;;;;;;9.81;100.00;102759.63;2612685;36;20089;-55
2022/05/08 01:36:45;;;;;;;;;;;;;;;9.78;100.00;102759.78;2612548;36;20082;-53
2022/05/08 01:39:16;;;;;;;;;;;;;;;9.71;100.00;102761.06;2612411;36;19950;-53
2022/05/08 01:41:44;;;;;;;;;;;;;;;9.78;100.00;102764.31;2612194;36;19989;-55
2022/05/08 01:44:12;;;;;;;;;;;;;;;9.63;100.00;102766.88;2613651;31;19957;-56
2022/05/08 01:46:40;;;;;;;;;;;;;;;9.61;100.00;102768.78;2611332;36;19989;-52
2022/05/08 01:49:05;;;;;;;;;;;;;;;9.52;100.00;102782.69;2613352;36;20438;-52
2022/05/08 01:51:33;;;;;;;;;;;;;;;9.54;100.00;102771.88;2611906;36;20515;-54
2022/05/08 01:54:02;;;;;;;;;;;;;;;9.58;100.00;102773.44;2613012;36;19965;-54
2022/05/08 01:56:33;;;;;;;;;;;;;;;9.47;100.00;102782.09;2611847;36;19946;-52
2022/05/08 01:59:01;;;;;;;;;;;;;;;9.46;100.00;102780.34;2611441;31;20038;-55
2022/05/08 02:01:29;;;;;;;;;;;;;;;9.32;100.00;102777.50;2610730;36;20042;-57
2022/05/08 02:03:57;;;;;;;;;;;;;;;9.22;100.00;102779.84;2613733;36;20343;-56
2022/05/08 02:06:25;;;;;;;;;;;;;;;9.26;100.00;102776.91;2612283;36;20034;-54
2022/05/08 02:08:53;;;;;;;;;;;;;;;9.23;100.00;102782.44;2609707;36;20053;-55
2022/05/08 02:11:21;;;;;;;;;;;;;;;9.27;100.00;102780.44;2611946;36;19954;-54
2022/05/08 02:13:52;;;;;;;;;;;;;;;9.19;100.00;102788.91;2612986;31;20033;-56
2022/05/08 02:16:20;;;;;;;;;;;;;;;9.12;100.00;102780.28;2611879;36;20070;-54
2022/05/08 02:18:48;;;;;;;;;;;;;;;9.06;100.00;102777.06;2612965;36;20029;-52
2022/05/08 02:21:16;;;;;;;;;;;;;;;9.03;100.00;102778.09;2612169;36;19973;-53
2022/05/08 02:23:44;;;;;;;;;;;;;;;9.03;100.00;102779.91;2612952;36;20101;-55
2022/05/08 02:26:12;;;;;;;;;;;;;;;9.02;100.00;102787.09;2612068;36;20033;-56
2022/05/08 02:28:41;;;;;;;;;;;;;;;9.01;100.00;102789.84;2611295;36;19973;-55
2022/05/08 02:31:11;;;;;;;;;;;;;;;8.94;100.00;102779.41;2612948;36;20564;-53
2022/05/08 02:33:40;;;;;;;;;;;;;;;8.96;100.00;102782.03;2610876;36;19984;-50
2022/05/08 02:36:09;;;;;;;;;;;;;;;8.87;100.00;102785.19;2610262;31;19942;-55
2022/05/08 02:38:38;;;;;;;;;;;;;;;8.84;100.00;102783.53;2609802;36;20513;-54
2022/05/08 02:41:06;;;;;;;;;;;;;;;8.87;100.00;102777.13;2612999;36;19954;-54
2022/05/08 02:43:34;;;;;;;;;;;;;;;8.88;100.00;102778.88;2612291;36;20038;-57
2022/05/08 02:46:03;;;;;;;;;;;;;;;8.75;100.00;102790.22;2613321;36;20057;-54
2022/05/08 02:48:33;;;;;;;;;;;;;;;8.74;100.00;102788.47;2610593;36;19955;-53
2022/05/08 02:51:04;;;;;;;;;;;;;;;8.70;100.00;102788.72;2613050;31;19947;-52
2022/05/08 02:53:32;;;;;;;;;;;;;;;8.71;100.00;102787.78;2612159;36;20335;-53
2022/05/08 02:58:41;;;;;;;;;;;;;;;8.65;100.00;102794.31;2612178;36;19954;-54
2022/05/08 03:01:09;;;;;;;;;;;;;;;8.54;100.00;102783.25;2611048;36;20507;-52
2022/05/08 03:03:40;;;;;;;;;;;;;;;8.55;100.00;102793.03;2610915;36;19951;-55
2022/05/08 03:06:08;;;;;;;;;;;;;;;8.51;100.00;102786.94;2609997;36;19985;-55
2022/05/08 03:08:36;;;;;;;;;;;;;;;8.58;100.00;102792.88;2611527;36;19996;-54
2022/05/08 03:13:45;;;;;;;;;;;;;;;8.47;100.00;102792.53;2612290;31;19970;-52
2022/05/08 03:16:13;;;;;;;;;;;;;;;8.39;100.00;102788.38;2610614;31;20070;-53
2022/05/08 03:18:44;;;;;;;;;;;;;;;8.33;100.00;102799.41;2610502;36;19954;-56
2022/05/08 03:21:13;;;;;;;;;;;;;;;8.30;100.00;102788.81;2612854;36;19950;-53
2022/05/08 03:23:41;;;;;;;;;;;;;;;8.29;100.00;102795.13;2612009;36;19950;-54
2022/05/08 03:26:10;;;;;;;;;;;;;;;8.24;100.00;102799.84;2611578;36;19981;-53
2022/05/08 03:28:39;;;;;;;;;;;;;;;8.25;100.00;102804.28;2591415;36;20033;-55
2022/05/08 03:31:07;;;;;;;;;;;;;;;8.25;100.00;102798.91;2611731;31;19958;-53
2022/05/08 03:33:36;;;;;;;;;;;;;;;8.18;100.00;102795.63;2610828;31;20048;-53
2022/05/08 03:36:08;;;;;;;;;;;;;;;8.18;100.00;102805.50;2610765;36;19954;-54
2022/05/08 03:38:36;;;;;;;;;;;;;;;8.11;100.00;102809.41;2611491;36;19947;-55
2022/05/08 03:41:04;;;;;;;;;;;;;;;8.11;100.00;102810.28;2611657;36;19950;-55
2022/05/08 03:43:34;;;;;;;;;;;;;;;8.09;100.00;102809.47;2612848;36;19950;-55
2022/05/08 03:46:02;;;;;;;;;;;;;;;8.10;100.00;102808.56;2611678;36;19950;-52
2022/05/08 03:48:30;;;;;;;;;;;;;;;8.09;100.00;102806.81;2612540;36;20396;-55
2022/05/08 03:50:58;;;;;;;;;;;;;;;8.07;100.00;102809.56;2611084;36;19955;-53
2022/05/08 03:53:29;;;;;;;;;;;;;;;8.01;100.00;102815.22;2611687;36;20114;-54
2022/05/08 03:55:57;;;;;;;;;;;;;;;8.08;100.00;102815.78;2610813;36;20538;-53
2022/05/08 03:58:26;;;;;;;;;;;;;;;8.12;100.00;102813.84;2611796;36;19962;-51
2022/05/08 04:00:54;;;;;;;;;;;;;;;8.12;100.00;102816.53;2612159;31;19965;-55
2022/05/08 04:03:22;;;;;;;;;;;;;;;8.09;100.00;102812.16;2612458;36;20080;-54
2022/05/08 04:05:50;;;;;;;;;;;;;;;8.09;100.00;102805.94;2612403;36;20033;-55
2022/05/08 04:08:18;;;;;;;;;;;;;;;8.05;100.00;102816.81;2612461;36;20035;-56
2022/05/08 04:10:48;;;;;;;;;;;;;;;7.96;100.00;102822.59;2612233;36;20140;-51
2022/05/08 04:13:17;;;;;;;;;;;;;;;8.04;100.00;102820.44;2611793;36;19957;-54
2022/05/08 04:18:26;;;;;;;;;;;;;;;8.17;100.00;102820.75;2611695;36;19947;-56
2022/05/08 04:20:54;;;;;;;;;;;;;;;8.24;100.00;102821.31;2611379;36;20077;-54
2022/05/08 04:26:05;;;;;;;;;;;;;;;8.18;100.00;102830.50;2613366;36;19977;-51
2022/05/08 04:28:33;;;;;;;;;;;;;;;8.20;100.00;102819.69;2610677;36;20177;-53
2022/05/08 04:31:01;;;;;;;;;;;;;;;8.28;100.00;102827.41;2612209;36;20055;-50
2022/05/08 04:33:29;;;;;;;;;;;;;;;8.21;100.00;102821.44;2612467;36;20074;-51
2022/05/08 04:35:57;;;;;;;;;;;;;;;8.30;100.00;102826.38;2612481;36;19959;-55
2022/05/08 04:38:25;;;;;;;;;;;;;;;8.27;100.00;102829.19;2611938;36;20069;-54
2022/05/08 04:40:53;;;;;;;;;;;;;;;8.32;100.00;102828.97;2612704;36;20065;-53
2022/05/08 04:43:23;;;;;;;;;;;;;;;8.16;100.00;102835.09;2612383;36;20046;-52
2022/05/08 04:45:51;;;;;;;;;;;;;;;8.27;100.00;102831.88;2611996;36;19973;-56
2022/05/08 04:48:19;;;;;;;;;;;;;;;8.30;100.00;102836.25;2612048;36;20046;-57
2022/05/08 04:50:47;;;;;;;;;;;;;;;8.37;100.00;102838.56;2612352;36;19973;-55
2022/05/08 04:53:15;;;;;;;;;;;;;;;8.45;100.00;102840.03;2612413;36;20046;-54
2022/05/08 04:55:43;;;;;;;;;;;;;;;8.52;100.00;102834.28;2610591;36;20553;-56
2022/05/08 04:58:11;;;;;;;;;;;;;;;8.62;100.00;102831.19;2611463;36;20042;-58
2022/05/08 05:00:42;;;;;;;;;;;;;;;8.55;100.00;102835.97;2612861;36;20506;-55
2022/05/08 05:03:10;;;;;;;;;;;;;;;8.56;100.00;102843.94;2612225;36;19951;-48
2022/05/08 05:05:38;;;;;;;;;;;;;;;8.56;100.00;102835.03;2612308;31;19983;-56
2022/05/08 05:08:07;;;;;;;;;;;;;;;8.67;100.00;102843.44;2611760;31;19983;-55
2022/05/08 05:10:35;;;;;;;;;;;;;;;8.87;100.00;102844.28;2612737;36;20442;-53
2022/05/08 05:13:03;;;;;;;;;;;;;;;8.96;100.00;102835.75;2611858;36;20122;-53
2022/05/08 05:15:31;;;;;;;;;;;;;;;8.91;100.00;102843.19;2611843;31;20666;-52
2022/05/08 05:18:02;;;;;;;;;;;;;;;9.07;100.00;102854.88;2611479;31;20555;-55
2022/05/08 05:20:30;;;;;;;;;;;;;;;9.11;100.00;102853.78;2612134;36;19950;-55
2022/05/08 05:23:02;;;;;;;;;;;;;;;9.16;100.00;102858.03;2611741;36;19957;-51
2022/05/08 05:25:30;;;;;;;;;;;;;;;9.12;100.00;102852.81;2612572;31;19946;-53
2022/05/08 05:27:58;;;;;;;;;;;;;;;9.26;100.00;102853.94;2612329;31;20034;-55
2022/05/08 05:30:26;;;;;;;;;;;;;;;9.40;100.00;102851.41;2601824;36;19951;-55
2022/05/08 05:32:55;;;;;;;;;;;;;;;9.43;100.00;102850.38;2610905;36;19946;-56
2022/05/08 05:35:25;;;;;;;;;;;;;;;9.32;100.00;102853.66;2613324;36;20323;-55
2022/05/08 05:37:53;;;;;;;;;;;;;;;9.42;100.00;102860.28;2610948;36;20034;-53
2022/05/08 05:40:22;;;;;;;;;;;;;;;9.38;100.00;102858.69;2611894;31;19981;-55
2022/05/08 05:42:52;;;;;;;;;;;;;;;9.43;100.00;102861.16;2611913;31;19953;-54
2022/05/08 05:45:20;;;;;;;;;;;;;;;9.32;100.00;102869.78;2612160;36;19974;-55
2022/05/08 05:47:52;;;;;;;;;;;;;;;9.47;100.00;102868.09;2611293;36;19973;-57
2022/05/08 05:50:21;;;;;;;;;;;;;;;9.57;100.00;102879.22;2611382;36;20443;-55
2022/05/08 05:52:52;;;;;;;;;;;;;;;9.50;100.00;102867.09;2611579;36;19947;-51
2022/05/08 05:55:21;;;;;;;;;;;;;;;9.65;100.00;102874.34;2611697;36;20042;-52
2022/05/08 05:57:49;;;;;;;;;;;;;;;9.74;100.00;102876.53;2612042;36;20073;-57
2022/05/08 06:00:18;;;;;;;;;;;;;;;9.77;100.00;102870.97;2611600;36;20085;-53
2022/05/08 06:02:47;;;;;;;;;;;;;;;9.47;100.00;102879.72;2612338;31;20401;-51
2022/05/08 06:05:15;;;;;;;;;;;;;;;9.41;100.00;102874.66;2611905;36;20784;-55
2022/05/08 06:07:44;;;;;;;;;;;;;;;9.77;100.00;102884.44;2611996;36;20001;-52
2022/05/08 06:10:16;;;;;;;;;;;;;;;9.66;100.00;102884.16;2612027;36;20414;-60
2022/05/08 06:12:44;;;;;;;;;;;;;;;9.84;100.00;102887.69;2613161;36;19947;-53
2022/05/08 06:15:12;;;;;;;;;;;;;;;9.91;100.00;102882.81;2610669;36;19990;-56
2022/05/08 06:17:40;;;;;;;;;;;;;;;9.86;100.00;102890.28;2611175;36;20453;-51
2022/05/08 06:20:09;;;;;;;;;;;;;;;10.20;100.00;102893.84;2611880;36;20044;-58
2022/05/08 06:22:37;;;;;;;;;;;;;;;10.04;100.00;102894.69;2611639;36;19977;-52
2022/05/08 06:25:05;;;;;;;;;;;;;;;10.30;100.00;102895.09;2610565;36;20073;-52
2022/05/08 06:27:36;;;;;;;;;;;;;;;10.42;100.00;102894.44;2612177;36;19950;-54
2022/05/08 06:30:04;;;;;;;;;;;;;;;10.52;100.00;102892.97;2611280;36;19977;-53
2022/05/08 06:32:32;;;;;;;;;;;;;;;10.54;100.00;102892.00;2612579;36;20523;-55
2022/05/08 06:35:00;;;;;;;;;;;;;;;10.49;100.00;102895.84;2611520;36;19969;-53
2022/05/08 06:37:28;;;;;;;;;;;;;;;10.59;100.00;102889.94;2608997;36;20037;-55
2022/05/08 06:39:56;;;;;;;;;;;;;;;10.67;100.00;102898.44;2611782;36;20054;-53
2022/05/08 06:42:24;;;;;;;;;;;;;;;10.81;100.00;102906.63;2611594;31;19958;-55
2022/05/08 06:44:55;;;;;;;;;;;;;;;10.87;100.00;102900.88;2612272;36;19977;-55
2022/05/08 06:47:23;;;;;;;;;;;;;;;10.94;100.00;102905.91;2611311;36;19951;-55
2022/05/08 06:49:51;;;;;;;;;;;;;;;10.83;100.00;102903.84;2612090;36;20068;-53
2022/05/08 06:52:19;;;;;;;;;;;;;;;10.71;100.00;102900.03;2610655;36;20545;-52
2022/05/08 06:54:47;;;;;;;;;;;;;;;10.70;100.00;102903.66;2611916;31;20367;-55
2022/05/08 06:57:16;;;;;;;;;;;;;;;10.91;100.00;102909.66;2609863;36;20011;-54
2022/05/08 07:02:27;;;;;;;;;;;;;;;11.29;100.00;102905.69;2610824;31;20449;-52
2022/05/08 07:04:55;;;;;;;;;;;;;;;11.18;100.00;102914.41;2612754;36;20026;-51
2022/05/08 07:07:23;;;;;;;;;;;;;;;10.88;100.00;102912.53;2611450;36;20061;-56
2022/05/08 07:09:52;;;;;;;;;;;;;;;10.78;100.00;102912.19;2612288;36;20448;-54
2022/05/08 07:12:20;;;;;;;;;;;;;;;11.18;100.00;102917.13;2610674;36;20307;-54
2022/05/08 07:14:48;;;;;;;;;;;;;;;11.21;100.00;102908.84;2611847;36;20038;-54
2022/05/08 07:17:16;;;;;;;;;;;;;;;11.52;100.00;102910.59;2610563;36;20077;-56
2022/05/08 07:19:47;;;;;;;;;;;;;;;11.51;100.00;102911.56;2612512;36;20058;-51
2022/05/08 07:22:17;;;;;;;;;;;;;;;11.55;100.00;102912.22;2611280;36;19988;-54
2022/05/08 07:24:45;;;;;;;;;;;;;;;11.74;100.00;102901.19;2611558;36;20529;-53
2022/05/08 07:27:13;;;;;;;;;;;;;;;11.90;100.00;102911.94;2610435;31;19996;-54
2022/05/08 07:29:43;;;;;;;;;;;;;;;12.13;100.00;102915.94;2612121;31;20423;-54
2022/05/08 07:32:12;;;;;;;;;;;;;;;12.21;100.00;102910.06;2610556;36;20046;-57
2022/05/08 07:37:26;;;;;;;;;;;;;;;11.63;100.00;102914.47;2611267;31;19946;-50
2022/05/08 07:39:54;;;;;;;;;;;;;;;11.87;100.00;102921.06;2610271;36;19958;-53
2022/05/08 07:42:22;;;;;;;;;;;;;;;11.74;100.00;102928.19;2609888;36;19973;-55
2022/05/08 07:44:50;;;;;;;;;;;;;;;11.69;100.00;102919.47;2611718;36;19969;-57
2022/05/08 07:47:18;;;;;;;;;;;;;;;11.67;100.00;102924.13;2611329;36;20034;-55
2022/05/08 07:49:46;;;;;;;;;;;;;;;11.46;100.00;102924.44;2612120;31;19954;-53
2022/05/08 07:52:14;;;;;;;;;;;;;;;11.32;100.00;102932.47;2609961;36;19969;-53
2022/05/08 07:54:46;;;;;;;;;;;;;;;11.28;100.00;102930.91;2610173;36;19985;-52
2022/05/08 07:57:15;;;;;;;;;;;;;;;11.36;100.00;102934.88;2611472;36;20084;-56
2022/05/08 07:59:43;;;;;;;;;;;;;;;11.62;100.00;102934.31;2611808;36;19954;-54
2022/05/08 08:02:11;;;;;;;;;;;;;;;11.72;100.00;102941.75;2611872;31;19950;-54
2022/05/08 08:04:39;;;;;;;;;;;;;;;11.87;100.00;102934.56;2610710;36;20133;-54
2022/05/08 08:07:07;;;;;;;;;;;;;;;11.98;100.00;102933.94;2611088;36;20724;-54
2022/05/08 08:09:35;;;;;;;;;;;;;;;12.50;100.00;102928.94;2611941;36;20029;-55
2022/05/08 08:12:06;;;;;;;;;;;;;;;12.85;100.00;102931.19;2611804;36;20512;-54
2022/05/08 08:14:34;;;;;;;;;;;;;;;12.95;100.00;102926.91;2611262;31;20546;-57
2022/05/08 08:17:02;;;;;;;;;;;;;;;13.52;100.00;102931.28;2611723;36;20038;-56
2022/05/08 08:19:30;;;;;;;;;;;;;;;13.79;100.00;102931.19;2611333;36;19981;-51
2022/05/08 08:21:59;;;;;;;;;;;;;;;13.83;100.00;102924.59;2611005;36;19969;-56
2022/05/08 08:24:27;;;;;;;;;;;;;;;13.26;100.00;102925.72;2609763;36;20348;-55
2022/05/08 08:26:56;;;;;;;;;;;;;;;12.89;100.00;102935.44;2612078;36;19994;-56
2022/05/08 08:29:27;;;;;;;;;;;;;;;12.82;100.00;102934.94;2611447;36;20109;-56
2022/05/08 08:31:55;;;;;;;;;;;;;;;12.88;100.00;102931.88;2612227;36;20038;-54
2022/05/08 08:34:23;;;;;;;;;;;;;;;12.66;100.00;102926.09;2611372;36;20097;-54
2022/05/08 08:36:51;;;;;;;;;;;;;;;12.41;100.00;102933.06;2611609;36;20062;-55
2022/05/08 08:39:19;;;;;;;;;;;;;;;12.46;100.00;102930.97;2611663;36;19977;-52
2022/05/08 08:41:51;;;;;;;;;;;;;;;12.54;100.00;102936.72;2612932;36;20525;-53
2022/05/08 08:49:44;;;;;;;;;;;;;;;13.21;100.00;102949.53;2610677;36;19951;-54
2022/05/08 08:52:14;;;;;;;;;;;;;;;12.91;100.00;102941.59;2610738;36;19951;-55
2022/05/08 08:54:43;;;;;;;;;;;;;;;13.25;100.00;102942.94;2610125;36;19955;-53
2022/05/08 08:57:11;;;;;;;;;;;;;;;13.60;100.00;102934.34;2610127;36;20598;-53
2022/05/08 08:59:39;;;;;;;;;;;;;;;14.13;100.00;102936.09;2611603;36;20475;-55
2022/05/08 09:02:16;;;;;;;;;;;;;;;14.06;100.00;102934.78;2611261;36;20546;-57
2022/05/08 09:04:44;;;;;;;;;;;;;;;14.00;100.00;102926.13;2608696;36;19950;-55
2022/05/08 09:07:27;;;;;;;;;;;;;;;14.40;100.00;102935.97;2611430;36;20543;-51
2022/05/08 09:10:07;;;;;;;;;;;;;;;14.52;100.00;102940.50;2610428;31;20432;-50
2022/05/08 09:12:35;;;;;;;;;;;;;;;14.40;100.00;102941.41;2610902;36;19955;-56
2022/05/08 09:15:18;;;;;;;;;;;;;;;14.26;100.00;102928.81;2611575;36;19985;-55
2022/05/08 09:17:49;;;;;;;;;;;;;;;14.28;100.00;102935.03;2610555;36;19973;-55
2022/05/08 09:20:32;;;;;;;;;;;;;;;14.40;100.00;102935.97;2612643;36;20417;-56
2022/05/08 09:23:01;;;;;;;;;;;;;;;14.80;99.55;102927.69;2611426;36;19958;-54
2022/05/08 09:25:43;;;;;;;;;;;;;;;14.89;96.25;102928.84;2611469;36;19951;-54
2022/05/08 09:28:11;;;;;;;;;;;;;;;15.16;94.15;102930.47;2611970;36;19951;-56
2022/05/08 09:30:54;;;;;;;;;;;;;;;15.48;100.00;102919.03;2611850;36;19951;-55
2022/05/08 09:33:32;;;;;;;;;;;;;;;15.46;91.85;102932.72;2611295;36;20036;-56
2022/05/08 09:36:00;;;;;;;;;;;;;;;15.31;93.96;102932.03;2612360;36;19954;-52
2022/05/08 09:38:43;;;;;;;;;;;;;;;15.90;92.91;102927.53;2610989;36;20452;-55
2022/05/08 09:41:11;;;;;;;;;;;;;;;15.44;87.36;102912.94;2611282;36;20034;-56
2022/05/08 09:43:40;;;;;;;;;;;;;;;15.47;96.22;102912.72;2611281;36;19946;-55
2022/05/08 09:46:08;;;;;;;;;;;;;;;15.80;83.03;102910.25;2612003;31;19958;-54
2022/05/08 09:48:39;;;;;;;;;;;;;;;15.60;78.95;102912.63;2611926;36;20026;-54
2022/05/08 09:51:08;;;;;;;;;;;;;;;15.54;80.14;102923.97;2612275;36;20413;-51
2022/05/08 09:53:36;;;;;;;;;;;;;;;15.59;73.26;102917.22;2614488;31;20444;-56
2022/05/08 09:56:06;;;;;;;;;;;;;;;15.63;73.04;102916.97;2612062;36;20005;-55
2022/05/08 09:58:34;;;;;;;;;;;;;;;14.85;77.00;102924.63;2611494;36;19947;-53
2022/05/08 10:01:02;;;;;;;;;;;;;;;15.34;92.75;102917.34;2612895;36;19957;-55
2022/05/08 10:03:31;;;;;;;;;;;;;;;15.46;73.82;102915.53;2611789;36;19991;-55
2022/05/08 10:06:02;;;;;;;;;;;;;;;15.62;70.00;102909.81;2612681;36;19950;-54
2022/05/08 10:08:32;;;;;;;;;;;;;;;15.89;84.98;102912.25;2612594;31;19947;-55
2022/05/08 10:16:47;;;;;;;;;;;;;;;16.85;70.73;102902.69;2612577;36;20037;-56
2022/05/08 10:19:30;;;;;;;;;;;;;;;17.17;67.59;102916.34;2612369;36;19951;-54
2022/05/08 10:22:10;;;;;;;;;;;;;;;17.22;64.21;102901.50;2611560;36;20074;-52
2022/05/08 10:24:39;;;;;;;;;;;;;;;17.20;67.25;102896.19;2611314;36;19947;-55
2022/05/08 10:27:10;;;;;;;;;;;;;;;17.69;61.71;102904.72;2612186;36;20049;-54
2022/05/08 10:29:38;;;;;;;;;;;;;;;17.57;63.62;102900.34;2612419;31;19981;-55
2022/05/08 10:32:10;;;;;;;;;;;;;;;17.45;61.45;102897.69;2611717;36;20061;-54
2022/05/08 10:34:39;;;;;;;;;;;;;;;16.45;61.73;102901.41;2611619;31;19955;-55
2022/05/08 10:37:22;;;;;;;;;;;;;;;16.82;66.43;102901.09;2613548;31;19954;-55
2022/05/08 10:39:53;;;;;;;;;;;;;;;16.83;61.13;102896.53;2611818;36;20614;-53
2022/05/08 10:42:39;;;;;;;;;;;;;;;16.42;62.98;102882.63;2612677;36;19954;-54
2022/05/08 10:45:08;;;;;;;;;;;;;;;16.50;62.11;102889.28;2611970;36;19981;-53
2022/05/08 10:47:43;;;;;;;;;;;;;;;16.58;62.51;102892.25;2610638;36;20057;-54
2022/05/08 10:50:11;;;;;;;;;;;;;;;16.44;62.01;102886.09;2612179;36;20420;-57
2022/05/08 10:52:41;;;;;;;;;;;;;;;16.70;63.30;102885.81;2612570;31;20054;-54
2022/05/08 10:55:14;;;;;;;;;;;;;;;16.95;65.31;102884.66;2612788;36;19947;-56
2022/05/08 10:57:43;;;;;;;;;;;;;;;16.88;62.49;102869.84;2610598;36;19946;-54
2022/05/08 11:00:12;;;;;;;;;;;;;;;16.60;63.29;102884.84;2607673;31;20431;-56
2022/05/08 11:02:40;;;;;;;;;;;;;;;16.93;60.80;102874.88;2612688;36;20030;-53
2022/05/08 11:05:09;;;;;;;;;;;;;;;16.99;60.73;102883.41;2612934;36;19946;-55
2022/05/08 11:07:40;;;;;;;;;;;;;;;17.15;64.27;102884.81;2612846;36;19969;-54
2022/05/08 11:10:19;;;;;;;;;;;;;;;17.21;60.67;102872.56;2612824;36;20066;-52
2022/05/08 11:12:59;;;;;;;;;;;;;;;17.87;57.53;102877.72;2613570;36;19978;-56
2022/05/08 11:15:28;;;;;;;;;;;;;;;17.76;57.72;102873.25;2613626;36;19954;-58
2022/05/08 11:18:07;;;;;;;;;;;;;;;17.66;56.13;102875.03;2612620;36;19951;-55
2022/05/08 11:20:36;;;;;;;;;;;;;;;17.52;56.96;102882.53;2612997;36;19950;-55
2022/05/08 11:23:04;;;;;;;;;;;;;;;17.27;59.61;102877.47;2614081;31;20447;-55
2022/05/08 11:25:35;;;;;;;;;;;;;;;17.46;57.90;102879.47;2612692;36;20038;-57
2022/05/08 11:28:03;;;;;;;;;;;;;;;17.70;59.83;102865.59;2612813;36;19970;-53
2022/05/08 11:30:32;;;;;;;;;;;;;;;17.84;59.02;102870.72;2613738;36;20049;-57
2022/05/08 11:38:22;;;;;;;;;;;;;;;18.23;56.37;102875.50;2612760;36;19959;-54
2022/05/08 11:40:53;;;;;;;;;;;;;;;17.83;53.84;102857.22;2612343;36;20495;-56
2022/05/08 11:43:36;;;;;;;;;;;;;;;18.08;53.82;102850.50;2613109;36;20057;-55
2022/05/08 11:46:04;;;;;;;;;;;;;;;17.96;56.94;102857.91;2613118;36;20121;-54
2022/05/08 11:48:37;;;;;;;;;;;;;;;18.43;54.53;102861.94;2613299;36;19975;-54
2022/05/08 11:51:09;;;;;;;;;;;;;;;17.97;52.73;102861.47;2612972;36;19950;-57
2022/05/08 11:53:44;;;;;;;;;;;;;;;18.19;53.01;102860.44;2613877;31;20038;-56
2022/05/08 11:56:28;;;;;;;;;;;;;;;18.45;52.48;102855.34;2612879;36;19953;-55
2022/05/08 11:58:56;;;;;;;;;;;;;;;18.44;54.19;102853.63;2613129;36;20045;-57
2022/05/08 12:01:29;;;;;;;;;;;;;;;18.18;52.18;102856.84;2612043;36;19974;-57
2022/05/08 12:03:57;;;;;;;;;;;;;;;18.06;51.22;102852.47;2612709;31;20513;-55
2022/05/08 12:06:25;;;;;;;;;;;;;;;18.14;52.34;102855.41;2611104;31;20050;-55
2022/05/08 12:08:53;;;;;;;;;;;;;;;18.66;50.95;102846.22;2611155;36;19951;-56
2022/05/08 12:11:40;;;;;;;;;;;;;;;18.41;52.69;102845.72;2612450;36;19951;-57
2022/05/08 12:14:10;;;;;;;;;;;;;;;18.50;51.75;102844.88;2612302;36;19965;-56
2022/05/08 12:16:38;;;;;;;;;;;;;;;18.47;51.85;102833.41;2612610;36;19951;-57
2022/05/08 12:19:18;;;;;;;;;;;;;;;18.39;52.18;102842.28;2612782;36;20041;-57
2022/05/08 12:21:47;;;;;;;;;;;;;;;18.15;53.78;102835.31;2613353;36;20440;-56
2022/05/08 12:24:17;;;;;;;;;;;;;;;18.34;51.90;102837.25;2613212;36;19954;-57
2022/05/08 12:26:47;;;;;;;;;;;;;;;18.86;51.48;102826.16;2614930;31;20407;-57
2022/05/08 12:29:19;;;;;;;;;;;;;;;19.12;48.59;102822.00;2614248;36;20077;-57
2022/05/08 12:31:49;;;;;;;;;;;;;;;19.38;50.41;102814.06;2613816;36;20038;-57
2022/05/08 12:34:18;;;;;;;;;;;;;;;19.51;50.36;102814.59;2613564;31;20847;-57
2022/05/08 12:36:46;;;;;;;;;;;;;;;19.30;49.02;102813.91;2609281;36;19951;-57
2022/05/08 12:39:14;;;;;;;;;;;;;;;19.37;50.27;102815.06;2613507;36;20075;-56
2022/05/08 12:41:42;;;;;;;;;;;;;;;19.42;49.43;102812.78;2613115;36;20082;-57
2022/05/08 12:44:12;;;;;;;;;;;;;;;18.93;49.26;102817.41;2612809;36;19947;-56
2022/05/08 12:46:40;;;;;;;;;;;;;;;19.05;46.73;102813.50;2613553;36;20038;-56
2022/05/08 12:49:10;;;;;;;;;;;;;;;19.48;45.97;102806.72;2613408;36;19951;-55
2022/05/08 12:51:39;;;;;;;;;;;;;;;19.13;46.99;102816.38;2613129;36;19977;-56
2022/05/08 12:54:07;;;;;;;;;;;;;;;19.61;44.79;102817.31;2613183;36;19950;-56
2022/05/08 12:56:35;;;;;;;;;;;;;;;19.65;45.78;102806.94;2613834;36;20479;-56
2022/05/08 13:01:48;;;;;;;;;;;;;;;19.54;44.12;102811.56;2613772;36;19956;-56
2022/05/08 13:04:16;;;;;;;;;;;;;;;19.11;46.42;102809.34;2613580;36;19946;-56
2022/05/08 13:06:44;;;;;;;;;;;;;;;19.86;45.30;102804.91;2613577;36;20027;-54
2022/05/08 13:09:13;;;;;;;;;;;;;;;19.92;45.87;102797.94;2611815;36;20436;-57
2022/05/08 13:11:41;;;;;;;;;;;;;;;19.81;46.07;102796.28;2612685;36;19977;-56
2022/05/08 13:14:09;;;;;;;;;;;;;;;19.78;46.06;102796.56;2610788;31;20406;-57
2022/05/08 13:16:37;;;;;;;;;;;;;;;20.08;48.96;102787.25;2612588;36;19977;-57
2022/05/08 13:19:08;;;;;;;;;;;;;;;20.73;44.95;102785.38;2613739;36;20050;-57